DLH1PM EDDF-EDDS
Flight info
| Callsign | DLH1PM |
|---|---|
| Flight time | 0h 26m |
| Altitude | 13000 |
| Route | ANEKI2L/18 ANEKI Y163 NEKLO Y171 INKAM N850 KRH T128 BADSO BADSO2A |
| Aircraft | A320/M-SDE3FGHIRWY/LB1 |
Departure
| Time | 2026-05-06 16:36 |
|---|---|
| Airport | Frankfurt Main Airport (EDDF) |
Arrival
| Time | 2026-05-06 17:02 |
|---|---|
| Airport | Stuttgart Airport (EDDS) |
| Time | Latitude | Longitude | Altitude | Speed | Heading |
|---|---|---|---|---|---|
| 2026-05-06 16:03 | 50.04393 | 8.57031 | 359 ft | 0 kts | 159° |
| 2026-05-06 16:25 | 50.04392 | 8.57032 | 359 ft | 1 kts | 159° |
| 2026-05-06 16:26 | 50.04350 | 8.57057 | 362 ft | 8 kts | 159° |
| 2026-05-06 16:26 | 50.04311 | 8.57047 | 364 ft | 5 kts | 232° |
| 2026-05-06 16:26 | 50.04293 | 8.56977 | 362 ft | 9 kts | 249° |
| 2026-05-06 16:26 | 50.04270 | 8.56881 | 360 ft | 10 kts | 251° |
| 2026-05-06 16:27 | 50.04244 | 8.56768 | 363 ft | 13 kts | 249° |
| 2026-05-06 16:27 | 50.04209 | 8.56621 | 359 ft | 16 kts | 250° |
| 2026-05-06 16:27 | 50.04166 | 8.56439 | 360 ft | 19 kts | 250° |
| 2026-05-06 16:27 | 50.04116 | 8.56231 | 355 ft | 22 kts | 249° |
| 2026-05-06 16:28 | 50.04060 | 8.56004 | 354 ft | 23 kts | 250° |
| 2026-05-06 16:28 | 50.04003 | 8.55757 | 355 ft | 25 kts | 250° |
| 2026-05-06 16:28 | 50.03942 | 8.55499 | 349 ft | 26 kts | 249° |
| 2026-05-06 16:28 | 50.03878 | 8.55235 | 357 ft | 26 kts | 249° |
| 2026-05-06 16:29 | 50.03816 | 8.54964 | 354 ft | 27 kts | 250° |
| 2026-05-06 16:29 | 50.03746 | 8.54687 | 350 ft | 28 kts | 250° |
| 2026-05-06 16:29 | 50.03677 | 8.54393 | 348 ft | 30 kts | 248° |
| 2026-05-06 16:29 | 50.03607 | 8.54098 | 350 ft | 29 kts | 250° |
| 2026-05-06 16:30 | 50.03534 | 8.53801 | 337 ft | 30 kts | 250° |
| 2026-05-06 16:30 | 50.03486 | 8.53596 | 337 ft | 30 kts | 249° |
| 2026-05-06 16:30 | 50.03415 | 8.53301 | 336 ft | 22 kts | 250° |
| 2026-05-06 16:30 | 50.03362 | 8.53079 | 335 ft | 16 kts | 249° |
| 2026-05-06 16:31 | 50.03321 | 8.52903 | 332 ft | 18 kts | 250° |
| 2026-05-06 16:31 | 50.03283 | 8.52749 | 333 ft | 9 kts | 249° |
| 2026-05-06 16:31 | 50.03282 | 8.52746 | 333 ft | 0 kts | 249° |
| 2026-05-06 16:32 | 50.03281 | 8.52741 | 333 ft | 1 kts | 249° |
| 2026-05-06 16:32 | 50.03279 | 8.52736 | 334 ft | 0 kts | 249° |
| 2026-05-06 16:33 | 50.03279 | 8.52734 | 334 ft | 0 kts | 249° |
| 2026-05-06 16:34 | 50.03266 | 8.52678 | 335 ft | 11 kts | 250° |
| 2026-05-06 16:35 | 50.03221 | 8.52595 | 333 ft | 11 kts | 181° |
| 2026-05-06 16:35 | 50.03195 | 8.52595 | 334 ft | 2 kts | 179° |
| 2026-05-06 16:35 | 50.03152 | 8.52596 | 333 ft | 27 kts | 180° |
| 2026-05-06 16:35 | 50.02688 | 8.52600 | 335 ft | 102 kts | 179° |
| 2026-05-06 16:36 | 50.01772 | 8.52608 | 334 ft | 158 kts | 179° |
| 2026-05-06 16:36 | 50.00566 | 8.52614 | 665 ft | 172 kts | 184° |
| 2026-05-06 16:36 | 49.99435 | 8.52681 | 1558 ft | 160 kts | 181° |
| 2026-05-06 16:36 | 49.98307 | 8.52767 | 2098 ft | 166 kts | 181° |
| 2026-05-06 16:37 | 49.97125 | 8.52890 | 2612 ft | 175 kts | 180° |
| 2026-05-06 16:37 | 49.95873 | 8.53015 | 3065 ft | 190 kts | 181° |
| 2026-05-06 16:37 | 49.94476 | 8.53106 | 3417 ft | 212 kts | 180° |
| 2026-05-06 16:37 | 49.92941 | 8.53183 | 3870 ft | 229 kts | 181° |
| 2026-05-06 16:38 | 49.91336 | 8.53269 | 4724 ft | 229 kts | 181° |
| 2026-05-06 16:38 | 49.89743 | 8.53364 | 5539 ft | 230 kts | 181° |
| 2026-05-06 16:38 | 49.88129 | 8.53466 | 6308 ft | 232 kts | 180° |
| 2026-05-06 16:38 | 49.86505 | 8.53573 | 7049 ft | 236 kts | 180° |
| 2026-05-06 16:39 | 49.84837 | 8.53687 | 7820 ft | 240 kts | 180° |
| 2026-05-06 16:39 | 49.83154 | 8.53801 | 8597 ft | 244 kts | 180° |
| 2026-05-06 16:39 | 49.81468 | 8.53917 | 9335 ft | 246 kts | 179° |
| 2026-05-06 16:39 | 49.79748 | 8.54037 | 10068 ft | 249 kts | 179° |
| 2026-05-06 16:40 | 49.78013 | 8.54123 | 10794 ft | 251 kts | 185° |
| 2026-05-06 16:40 | 49.76209 | 8.53905 | 11147 ft | 272 kts | 187° |
| 2026-05-06 16:40 | 49.74240 | 8.53635 | 11386 ft | 295 kts | 186° |
| 2026-05-06 16:40 | 49.72115 | 8.53342 | 11618 ft | 318 kts | 187° |
| 2026-05-06 16:41 | 49.69872 | 8.53034 | 12146 ft | 328 kts | 186° |
| 2026-05-06 16:41 | 49.67578 | 8.52725 | 12820 ft | 334 kts | 186° |
| 2026-05-06 16:41 | 49.65252 | 8.52419 | 13557 ft | 337 kts | 186° |
| 2026-05-06 16:41 | 49.62907 | 8.52116 | 14224 ft | 340 kts | 186° |
| 2026-05-06 16:42 | 49.60548 | 8.51812 | 14936 ft | 341 kts | 186° |
| 2026-05-06 16:42 | 49.58177 | 8.51505 | 15596 ft | 344 kts | 186° |
| 2026-05-06 16:42 | 49.55776 | 8.51192 | 16225 ft | 347 kts | 186° |
| 2026-05-06 16:42 | 49.53350 | 8.51037 | 16832 ft | 351 kts | 176° |
| 2026-05-06 16:43 | 49.50919 | 8.51544 | 17107 ft | 353 kts | 172° |
| 2026-05-06 16:43 | 49.48486 | 8.52152 | 17379 ft | 353 kts | 171° |
| 2026-05-06 16:43 | 49.46063 | 8.52792 | 17642 ft | 354 kts | 171° |
| 2026-05-06 16:43 | 49.43630 | 8.53441 | 17764 ft | 353 kts | 171° |
| 2026-05-06 16:44 | 49.41293 | 8.54063 | 17779 ft | 339 kts | 171° |
| 2026-05-06 16:44 | 49.38994 | 8.54667 | 17784 ft | 334 kts | 172° |
| 2026-05-06 16:44 | 49.36708 | 8.55258 | 17784 ft | 332 kts | 172° |
| 2026-05-06 16:44 | 49.34422 | 8.55841 | 17790 ft | 332 kts | 172° |
| 2026-05-06 16:45 | 49.32140 | 8.56417 | 17792 ft | 333 kts | 172° |
| 2026-05-06 16:45 | 49.29856 | 8.56997 | 17794 ft | 332 kts | 172° |
| 2026-05-06 16:45 | 49.27576 | 8.57577 | 17798 ft | 333 kts | 172° |
| 2026-05-06 16:45 | 49.25289 | 8.58159 | 17802 ft | 333 kts | 172° |
| 2026-05-06 16:46 | 49.23001 | 8.58740 | 17805 ft | 333 kts | 172° |
| 2026-05-06 16:46 | 49.20715 | 8.59320 | 17825 ft | 333 kts | 172° |
| 2026-05-06 16:46 | 49.18427 | 8.59904 | 17829 ft | 333 kts | 171° |
| 2026-05-06 16:46 | 49.16142 | 8.60479 | 17826 ft | 333 kts | 173° |
| 2026-05-06 16:47 | 49.13828 | 8.60602 | 17826 ft | 332 kts | 185° |
| 2026-05-06 16:47 | 49.11528 | 8.60253 | 17834 ft | 332 kts | 186° |
| 2026-05-06 16:47 | 49.09227 | 8.59900 | 17830 ft | 332 kts | 185° |
| 2026-05-06 16:47 | 49.06926 | 8.59552 | 17829 ft | 332 kts | 185° |
| 2026-05-06 16:48 | 49.04649 | 8.59214 | 17823 ft | 333 kts | 185° |
| 2026-05-06 16:48 | 49.02341 | 8.58876 | 17826 ft | 333 kts | 185° |
| 2026-05-06 16:48 | 49.00035 | 8.58541 | 17827 ft | 333 kts | 184° |
| 2026-05-06 16:48 | 48.97721 | 8.58598 | 17832 ft | 332 kts | 175° |
| 2026-05-06 16:49 | 48.95432 | 8.58870 | 17589 ft | 326 kts | 176° |
| 2026-05-06 16:49 | 48.93198 | 8.59137 | 17322 ft | 319 kts | 175° |
| 2026-05-06 16:49 | 48.90997 | 8.59399 | 17061 ft | 315 kts | 176° |
| 2026-05-06 16:49 | 48.88821 | 8.59660 | 16791 ft | 311 kts | 176° |
| 2026-05-06 16:50 | 48.86716 | 8.60155 | 16530 ft | 310 kts | 161° |
| 2026-05-06 16:50 | 48.84835 | 8.61788 | 16158 ft | 310 kts | 139° |
| 2026-05-06 16:50 | 48.83571 | 8.64388 | 15752 ft | 314 kts | 116° |
| 2026-05-06 16:50 | 48.83091 | 8.67626 | 15358 ft | 318 kts | 91° |
| 2026-05-06 16:51 | 48.83389 | 8.70956 | 14951 ft | 320 kts | 81° |
| 2026-05-06 16:51 | 48.83819 | 8.74280 | 14542 ft | 321 kts | 80° |
| 2026-05-06 16:51 | 48.84252 | 8.77606 | 14127 ft | 322 kts | 81° |
| 2026-05-06 16:51 | 48.84685 | 8.80950 | 13715 ft | 323 kts | 81° |
| 2026-05-06 16:52 | 48.85116 | 8.84306 | 13263 ft | 323 kts | 80° |
| 2026-05-06 16:52 | 48.85542 | 8.87645 | 12848 ft | 322 kts | 81° |
| 2026-05-06 16:52 | 48.85965 | 8.90978 | 12415 ft | 321 kts | 79° |
| 2026-05-06 16:52 | 48.86387 | 8.94306 | 12006 ft | 320 kts | 80° |
| 2026-05-06 16:53 | 48.86802 | 8.97624 | 11586 ft | 320 kts | 80° |
| 2026-05-06 16:53 | 48.87214 | 9.00956 | 11149 ft | 320 kts | 79° |
| 2026-05-06 16:53 | 48.87626 | 9.04278 | 10710 ft | 320 kts | 79° |
| 2026-05-06 16:53 | 48.88034 | 9.07562 | 10277 ft | 320 kts | 79° |
| 2026-05-06 16:54 | 48.88444 | 9.10852 | 10068 ft | 312 kts | 79° |
| 2026-05-06 16:54 | 48.88845 | 9.14070 | 9728 ft | 302 kts | 79° |
| 2026-05-06 16:54 | 48.89230 | 9.17154 | 9008 ft | 301 kts | 79° |
| 2026-05-06 16:54 | 48.89610 | 9.20245 | 8497 ft | 294 kts | 79° |
| 2026-05-06 16:55 | 48.89983 | 9.23288 | 8056 ft | 293 kts | 79° |
| 2026-05-06 16:55 | 48.90356 | 9.26339 | 7597 ft | 294 kts | 79° |
| 2026-05-06 16:55 | 48.90657 | 9.29412 | 7175 ft | 293 kts | 90° |
| 2026-05-06 16:55 | 48.90321 | 9.32419 | 6805 ft | 288 kts | 112° |
| 2026-05-06 16:56 | 48.89288 | 9.35010 | 6314 ft | 286 kts | 135° |
| 2026-05-06 16:56 | 48.87743 | 9.36805 | 5893 ft | 280 kts | 155° |
| 2026-05-06 16:56 | 48.86016 | 9.38135 | 5512 ft | 274 kts | 156° |
| 2026-05-06 16:56 | 48.84393 | 9.39410 | 5390 ft | 252 kts | 156° |
| 2026-05-06 16:57 | 48.82865 | 9.40619 | 5037 ft | 242 kts | 156° |
| 2026-05-06 16:57 | 48.81406 | 9.41768 | 4872 ft | 239 kts | 156° |
| 2026-05-06 16:57 | 48.79946 | 9.42912 | 4436 ft | 239 kts | 156° |
| 2026-05-06 16:57 | 48.78439 | 9.44006 | 4047 ft | 239 kts | 166° |
| 2026-05-06 16:58 | 48.76843 | 9.44394 | 3959 ft | 228 kts | 184° |
| 2026-05-06 16:58 | 48.75330 | 9.44019 | 3870 ft | 216 kts | 202° |
| 2026-05-06 16:58 | 48.74045 | 9.43045 | 3737 ft | 203 kts | 218° |
| 2026-05-06 16:58 | 48.73036 | 9.41617 | 3544 ft | 195 kts | 233° |
| 2026-05-06 16:59 | 48.72352 | 9.39877 | 3334 ft | 191 kts | 248° |
| 2026-05-06 16:59 | 48.71960 | 9.37967 | 3098 ft | 189 kts | 253° |
| 2026-05-06 16:59 | 48.71601 | 9.36061 | 2840 ft | 188 kts | 253° |
| 2026-05-06 16:59 | 48.71253 | 9.34211 | 2619 ft | 175 kts | 253° |
| 2026-05-06 17:00 | 48.70932 | 9.32503 | 2364 ft | 161 kts | 253° |
| 2026-05-06 17:00 | 48.70438 | 9.29963 | 2017 ft | 144 kts | 251° |
| 2026-05-06 17:01 | 48.70167 | 9.28513 | 1776 ft | 143 kts | 256° |
| 2026-05-06 17:01 | 48.69913 | 9.27058 | 1597 ft | 142 kts | 255° |
| 2026-05-06 17:01 | 48.69638 | 9.25617 | 1406 ft | 141 kts | 253° |
| 2026-05-06 17:01 | 48.69366 | 9.24200 | 1219 ft | 140 kts | 254° |
| 2026-05-06 17:02 | 48.69128 | 9.22939 | 1218 ft | 100 kts | 254° |
| 2026-05-06 17:02 | 48.68982 | 9.22167 | 1240 ft | 55 kts | 254° |
| 2026-05-06 17:02 | 48.68946 | 9.21799 | 1245 ft | 26 kts | 271° |
| 2026-05-06 17:02 | 48.68973 | 9.21550 | 1259 ft | 23 kts | 284° |
| 2026-05-06 17:03 | 48.68982 | 9.21498 | 1255 ft | 22 kts | 284° |
| 2026-05-06 17:03 | 48.68993 | 9.21432 | 1265 ft | 0 kts | 284° |
| 2026-05-06 17:03 | 48.68997 | 9.21409 | 1264 ft | 5 kts | 284° |
| 2026-05-06 17:03 | 48.69003 | 9.21365 | 1261 ft | 5 kts | 275° |
| 2026-05-06 17:04 | 48.69000 | 9.21338 | 1260 ft | 0 kts | 258° |
| 2026-05-06 17:04 | 48.68991 | 9.21284 | 1261 ft | 14 kts | 254° |
| 2026-05-06 17:04 | 48.68965 | 9.21149 | 1267 ft | 15 kts | 253° |
| 2026-05-06 17:04 | 48.68936 | 9.21003 | 1268 ft | 14 kts | 254° |
| 2026-05-06 17:05 | 48.68912 | 9.20873 | 1274 ft | 13 kts | 254° |
| 2026-05-06 17:05 | 48.68888 | 9.20743 | 1274 ft | 12 kts | 254° |
| 2026-05-06 17:05 | 48.68867 | 9.20633 | 1277 ft | 11 kts | 253° |
| 2026-05-06 17:05 | 48.68858 | 9.20586 | 1280 ft | 11 kts | 253° |
| 2026-05-06 17:06 | 48.68845 | 9.20520 | 1282 ft | 10 kts | 253° |
| 2026-05-06 17:06 | 48.68826 | 9.20419 | 1283 ft | 10 kts | 254° |
| 2026-05-06 17:06 | 48.68804 | 9.20299 | 1284 ft | 14 kts | 254° |
| 2026-05-06 17:06 | 48.68777 | 9.20157 | 1287 ft | 14 kts | 254° |
| 2026-05-06 17:07 | 48.68757 | 9.20023 | 1291 ft | 13 kts | 273° |
| 2026-05-06 17:07 | 48.68765 | 9.19906 | 1295 ft | 10 kts | 272° |
| 2026-05-06 17:07 | 48.68751 | 9.19814 | 1298 ft | 11 kts | 253° |
| 2026-05-06 17:07 | 48.68712 | 9.19608 | 1303 ft | 25 kts | 254° |
| 2026-05-06 17:08 | 48.68666 | 9.19369 | 1310 ft | 23 kts | 253° |
| 2026-05-06 17:08 | 48.68649 | 9.19195 | 1315 ft | 13 kts | 297° |
| 2026-05-06 17:08 | 48.68717 | 9.19145 | 1318 ft | 9 kts | 347° |
| 2026-05-06 17:08 | 48.68766 | 9.19183 | 1317 ft | 8 kts | 61° |
| 2026-05-06 17:09 | 48.68786 | 9.19273 | 1315 ft | 10 kts | 73° |
| 2026-05-06 17:09 | 48.68805 | 9.19374 | 1313 ft | 8 kts | 75° |
| 2026-05-06 17:09 | 48.68829 | 9.19385 | 1314 ft | 2 kts | 349° |
| 2026-05-06 17:09 | 48.68860 | 9.19370 | 1315 ft | 6 kts | 344° |
| 2026-05-06 17:10 | 48.68884 | 9.19359 | 1315 ft | 0 kts | 343° |